createdAt,value
2022-10-29T00:02:37.838Z,39.13
2022-10-29T00:07:39.714Z,41.03
2022-10-29T00:12:41.416Z,38.78
2022-10-29T00:17:43.645Z,41.92
2022-10-29T00:22:45.382Z,32.50
2022-10-29T00:27:47.243Z,33.65
2022-10-29T00:32:49.088Z,37.55
2022-10-29T00:37:50.917Z,36.72
2022-10-29T00:42:52.645Z,31.90
2022-10-29T00:47:54.823Z,39.95
2022-10-29T00:52:58.065Z,36.72
2022-10-29T00:58:00.893Z,39.88
2022-10-29T01:03:02.671Z,42.97
2022-10-29T01:08:05.553Z,41.25
2022-10-29T01:13:22.339Z,44.45
2022-10-29T01:18:36.490Z,44.20
2022-10-29T01:23:41.285Z,39.35
2022-10-29T01:28:51.693Z,40.03
2022-10-29T01:34:04.274Z,41.63
2022-10-29T01:39:37.513Z,39.38
2022-10-29T01:44:46.074Z,37.95
2022-10-29T01:49:57.822Z,39.17
2022-10-29T01:54:59.602Z,36.00
2022-10-29T02:00:13.697Z,35.22
2022-10-29T02:05:54.955Z,37.80
2022-10-29T02:11:09.069Z,37.58
2022-10-29T02:16:11.587Z,36.75
2022-10-29T02:21:20.139Z,37.15
2022-10-29T02:26:22.230Z,38.50
2022-10-29T02:31:23.981Z,38.13
2022-10-29T02:36:25.751Z,37.50
2022-10-29T02:41:27.568Z,39.63
2022-10-29T02:46:30.311Z,35.90
2022-10-29T02:51:32.087Z,34.97
2022-10-29T02:56:33.822Z,44.38
2022-10-29T03:01:35.673Z,47.65
2022-10-29T03:06:38.006Z,42.08
2022-10-29T03:11:39.800Z,49.08
2022-10-29T03:16:41.526Z,46.03
2022-10-29T03:21:43.265Z,44.60
2022-10-29T03:26:45.043Z,45.95
2022-10-29T03:31:46.866Z,44.90
2022-10-29T03:36:48.606Z,51.20
2022-10-29T03:41:50.341Z,43.47
2022-10-29T03:46:52.049Z,45.60
2022-10-29T03:51:53.761Z,43.22
2022-10-29T03:56:55.505Z,42.95
2022-10-29T04:01:57.350Z,43.42
2022-10-29T04:06:59.735Z,40.22
2022-10-29T04:12:01.463Z,42.70
2022-10-29T04:17:03.406Z,41.55
2022-10-29T04:32:49.503Z,42.17
2022-10-29T04:37:51.301Z,43.03
2022-10-29T04:42:53.195Z,36.17
2022-10-29T04:48:06.080Z,34.97
2022-10-29T04:53:08.792Z,35.78
2022-10-29T04:58:16.129Z,34.60
2022-10-29T05:03:17.845Z,33.53
2022-10-29T05:08:20.221Z,36.25
2022-10-29T05:13:21.946Z,34.33
2022-10-29T05:18:23.809Z,33.75
2022-10-29T05:23:26.825Z,33.90
2022-10-29T05:28:28.616Z,34.45
2022-10-29T05:33:30.338Z,37.10
2022-10-29T05:38:32.385Z,32.20
2022-10-29T05:43:34.360Z,31.17
2022-10-29T05:48:36.081Z,39.00
2022-10-29T05:53:37.889Z,39.33
2022-10-29T05:58:39.769Z,41.75
2022-10-29T06:03:41.569Z,46.00
2022-10-29T06:08:43.426Z,54.38
2022-10-29T06:13:45.253Z,46.78
2022-10-29T06:18:47.013Z,62.00
2022-10-29T06:23:50.704Z,49.38
2022-10-29T06:28:52.470Z,54.92
2022-10-29T06:33:55.495Z,59.38
2022-10-29T06:38:57.230Z,65.10
2022-10-29T06:43:58.961Z,77.22
2022-10-29T06:49:01.209Z,94.70
2022-10-29T06:54:03.026Z,84.38
2022-10-29T06:59:04.877Z,92.00
2022-10-29T07:04:06.762Z,76.03
2022-10-29T07:09:08.618Z,91.55
2022-10-29T07:14:10.400Z,85.95
2022-10-29T07:19:12.128Z,79.30
2022-10-29T07:24:13.995Z,77.00
2022-10-29T07:29:15.838Z,85.82
2022-10-29T07:34:17.590Z,73.22
2022-10-29T07:39:19.432Z,74.07
2022-10-29T07:44:21.215Z,62.53
2022-10-29T07:49:23.010Z,67.53
2022-10-29T07:54:24.718Z,58.45
2022-10-29T07:59:26.475Z,47.90
2022-10-29T08:04:28.165Z,51.40
2022-10-29T08:09:29.869Z,48.22
2022-10-29T08:14:31.598Z,54.30
2022-10-29T08:19:33.378Z,60.35
2022-10-29T08:24:35.158Z,62.55
2022-10-29T08:29:36.894Z,67.22
2022-10-29T08:34:38.613Z,83.30
2022-10-29T08:39:40.356Z,89.97
2022-10-29T08:44:45.023Z,86.05
2022-10-29T08:50:00.310Z,98.75
2022-10-29T08:55:18.805Z,101.90
2022-10-29T09:00:23.695Z,90.53
2022-10-29T09:05:35.654Z,88.93
2022-10-29T09:10:41.304Z,101.30
2022-10-29T09:16:01.374Z,89.22
2022-10-29T09:21:18.533Z,88.20
2022-10-29T09:26:39.607Z,92.43
2022-10-29T09:31:46.802Z,87.30
2022-10-29T09:36:48.864Z,88.47
2022-10-29T09:41:54.769Z,79.57
2022-10-29T09:47:22.629Z,68.68
2022-10-29T09:52:29.201Z,69.97
2022-10-29T09:57:34.251Z,64.65
2022-10-29T10:02:44.436Z,58.00
2022-10-29T10:08:06.357Z,58.22
2022-10-29T10:13:17.189Z,53.47
2022-10-29T10:18:38.694Z,62.20
2022-10-29T10:23:43.314Z,51.90
2022-10-29T10:28:45.050Z,51.30
2022-10-29T10:33:54.739Z,50.80
2022-10-29T10:38:59.176Z,65.30
2022-10-29T10:44:04.049Z,69.25
2022-10-29T10:49:13.065Z,65.65
2022-10-29T10:54:42.223Z,67.63
2022-10-29T10:59:55.010Z,65.20
2022-10-29T11:05:07.929Z,56.22
2022-10-29T11:10:13.838Z,61.17
2022-10-29T11:15:35.883Z,62.38
2022-10-29T11:20:40.064Z,70.03
2022-10-29T11:25:48.817Z,68.72
2022-10-29T11:36:20.260Z,66.00
2022-10-29T11:41:38.113Z,61.50
2022-10-29T11:47:05.554Z,53.60
2022-10-29T11:52:14.725Z,50.95
2022-10-29T11:57:31.419Z,43.67
2022-10-29T12:03:13.200Z,38.42
2022-10-29T12:08:36.633Z,39.22
2022-10-29T12:13:50.193Z,40.97
2022-10-29T12:19:19.519Z,32.25
2022-10-29T12:24:58.263Z,31.08
2022-10-29T12:30:06.266Z,30.60
2022-10-29T12:35:20.037Z,29.27
2022-10-29T12:40:31.401Z,27.88
2022-10-29T12:45:59.500Z,28.70
2022-10-29T12:51:17.441Z,23.27
2022-10-29T12:56:20.049Z,23.02
2022-10-29T13:01:57.547Z,16.80
2022-10-29T13:06:59.976Z,13.82
2022-10-29T13:12:13.876Z,16.77
2022-10-29T13:17:36.201Z,13.13
2022-10-29T13:22:52.786Z,13.85
2022-10-29T13:27:55.137Z,13.48
2022-10-29T13:32:57.314Z,12.40
2022-10-29T13:38:16.041Z,12.30
2022-10-29T13:48:28.651Z,11.02
2022-10-29T13:53:43.380Z,9.20
2022-10-29T13:58:47.934Z,13.63
2022-10-29T14:04:13.163Z,13.75
2022-10-29T14:09:30.094Z,12.18
2022-10-29T14:14:46.502Z,14.70
2022-10-29T14:19:51.233Z,11.35
2022-10-29T14:24:53.052Z,11.73
2022-10-29T14:30:13.218Z,13.75
2022-10-29T14:35:16.374Z,14.32
2022-10-29T14:40:23.001Z,9.60
2022-10-29T14:45:28.618Z,17.80
2022-10-29T14:50:31.281Z,12.63
2022-10-29T14:55:37.622Z,13.20
2022-10-29T15:00:49.777Z,13.55
2022-10-29T15:05:52.439Z,13.95
2022-10-29T15:10:57.771Z,15.30
2022-10-29T15:16:00.846Z,9.90
2022-10-29T15:21:04.058Z,13.75
2022-10-29T15:26:09.188Z,13.73
2022-10-29T15:31:34.278Z,21.40
2022-10-29T15:36:53.743Z,16.02
2022-10-29T15:41:58.830Z,14.32
2022-10-29T15:47:02.733Z,17.13
2022-10-29T15:52:04.681Z,21.67
2022-10-29T15:57:10.744Z,17.27
2022-10-29T16:02:19.857Z,18.58
2022-10-29T16:07:21.790Z,13.02
2022-10-29T16:12:24.122Z,17.65
2022-10-29T16:17:28.081Z,18.23
2022-10-29T16:22:30.383Z,18.85
2022-10-29T16:27:32.129Z,22.95
2022-10-29T16:32:33.983Z,17.38
2022-10-29T16:37:35.722Z,19.67
2022-10-29T16:42:38.046Z,19.10
2022-10-29T16:47:39.828Z,23.52
2022-10-29T16:52:41.702Z,17.98
2022-10-29T16:57:43.458Z,15.82
2022-10-29T17:02:45.833Z,15.95
2022-10-29T17:07:47.687Z,18.08
2022-10-29T17:12:50.062Z,27.73
2022-10-29T17:17:52.384Z,16.90
2022-10-29T17:22:54.165Z,16.60
2022-10-29T17:27:56.260Z,23.20
2022-10-29T17:32:58.578Z,22.08
2022-10-29T17:38:00.553Z,25.00
2022-10-29T17:43:02.924Z,16.13
2022-10-29T17:48:04.788Z,23.58
2022-10-29T17:53:06.547Z,23.40
2022-10-29T17:58:08.278Z,22.10
2022-10-29T18:03:10.016Z,18.55
2022-10-29T18:08:11.777Z,21.90
2022-10-29T18:13:13.557Z,23.27
2022-10-29T18:18:15.303Z,18.23
2022-10-29T18:23:17.012Z,27.33
2022-10-29T18:28:18.735Z,26.00
2022-10-29T18:33:20.544Z,14.82
2022-10-29T18:38:25.765Z,25.13
2022-10-29T18:43:33.102Z,19.10
2022-10-29T18:48:39.709Z,18.52
2022-10-29T18:53:41.709Z,31.73
2022-10-29T18:58:43.973Z,29.65
2022-10-29T19:03:50.718Z,20.42
2022-10-29T19:08:52.749Z,21.88
2022-10-29T19:13:56.667Z,26.15
2022-10-29T19:19:00.959Z,25.55
2022-10-29T19:24:03.769Z,28.77
2022-10-29T19:29:06.642Z,21.20
2022-10-29T19:34:08.696Z,25.92
2022-10-29T19:39:10.594Z,19.67
2022-10-29T19:44:12.348Z,21.80
2022-10-29T19:49:14.483Z,27.17
2022-10-29T19:54:16.269Z,31.38
2022-10-29T19:59:18.090Z,27.10
2022-10-29T20:04:19.818Z,24.88
2022-10-29T20:09:21.553Z,18.00
2022-10-29T20:14:28.776Z,23.90
2022-10-29T20:19:30.839Z,25.45
2022-10-29T20:24:32.590Z,30.40
2022-10-29T20:29:34.349Z,19.92
2022-10-29T20:34:36.095Z,31.92
2022-10-29T20:39:37.882Z,30.45
2022-10-29T20:44:39.846Z,24.45
2022-10-29T20:49:41.589Z,17.70
2022-10-29T20:54:43.356Z,32.10
2022-10-29T20:59:45.407Z,26.40
2022-10-29T21:04:47.133Z,29.17
2022-10-29T21:09:48.931Z,27.88
2022-10-29T21:14:50.717Z,23.85
2022-10-29T21:19:52.474Z,24.42
2022-10-29T21:24:54.214Z,28.27
2022-10-29T21:29:55.943Z,26.17
2022-10-29T21:34:57.758Z,18.75
2022-10-29T21:40:03.194Z,27.65
2022-10-29T21:45:08.142Z,24.48
2022-10-29T21:50:10.529Z,29.30
2022-10-29T21:55:12.274Z,30.30
2022-10-29T22:00:15.622Z,24.00
2022-10-29T22:05:17.400Z,29.08
2022-10-29T22:10:19.133Z,27.90
2022-10-29T22:15:20.878Z,23.42
2022-10-29T22:20:22.620Z,19.80
2022-10-29T22:25:24.651Z,30.33
2022-10-29T22:30:26.359Z,21.55
2022-10-29T22:35:28.102Z,22.92
2022-10-29T22:40:29.921Z,24.05
2022-10-29T22:45:31.653Z,21.77
2022-10-29T22:50:33.413Z,22.38
2022-10-29T22:55:35.133Z,24.30
2022-10-29T23:00:36.887Z,29.10
2022-10-29T23:05:38.624Z,27.98
2022-10-29T23:10:40.345Z,21.92
2022-10-29T23:15:49.356Z,19.42
2022-10-29T23:21:02.057Z,16.17
2022-10-29T23:26:04.332Z,29.35
2022-10-29T23:31:10.775Z,19.88
2022-10-29T23:36:13.658Z,19.05
2022-10-29T23:41:15.413Z,24.80
2022-10-29T23:46:17.252Z,19.75
2022-10-29T23:51:19.114Z,20.38
2022-10-29T23:56:20.929Z,21.52
